createdAt,value
2018-09-16T00:02:05.159Z,9.33
2018-09-16T00:08:01.595Z,9.41
2018-09-16T00:13:53.029Z,10.19
2018-09-16T00:19:48.019Z,9.46
2018-09-16T00:25:47.097Z,9.41
2018-09-16T00:31:38.071Z,9.46
2018-09-16T00:37:33.050Z,10.09
2018-09-16T00:43:28.035Z,11.43
2018-09-16T00:49:27.069Z,12.01
2018-09-16T00:55:21.522Z,10.82
2018-09-16T01:01:17.186Z,9.89
2018-09-16T01:07:10.678Z,10.73
2018-09-16T01:13:03.085Z,11.58
2018-09-16T01:18:59.585Z,11.03
2018-09-16T01:24:53.117Z,11.21
2018-09-16T01:30:49.964Z,10.71
2018-09-16T01:36:44.856Z,10.23
2018-09-16T01:42:38.084Z,10.6
2018-09-16T01:48:35.056Z,10.13
2018-09-16T01:54:28.060Z,9.94
2018-09-16T02:00:23.086Z,9.83
2018-09-16T02:06:19.870Z,10.42
2018-09-16T02:12:14.882Z,10.46
2018-09-16T02:18:08.086Z,10.63
2018-09-16T02:24:03.800Z,10.85
2018-09-16T02:29:58.589Z,10.34
2018-09-16T02:35:53.150Z,10.1
2018-09-16T02:41:48.125Z,10.43
2018-09-16T02:47:43.144Z,9.44
2018-09-16T02:53:38.132Z,10.43
2018-09-16T02:59:33.129Z,10.66
2018-09-16T03:05:28.165Z,12.23
2018-09-16T03:11:23.201Z,10.31
2018-09-16T03:17:18.173Z,11.14
2018-09-16T03:23:13.156Z,11.14
2018-09-16T03:29:08.145Z,11.38
2018-09-16T03:35:03.318Z,11.5
2018-09-16T03:40:58.148Z,10.31
2018-09-16T03:46:53.252Z,10.02
2018-09-16T03:52:48.167Z,9.97
2018-09-16T03:58:43.267Z,9.83
2018-09-16T04:04:38.158Z,10.18
2018-09-16T04:10:33.151Z,9.5
2018-09-16T04:16:28.155Z,9.7
2018-09-16T04:22:23.189Z,10.85
2018-09-16T04:28:18.172Z,11.91
2018-09-16T04:34:13.239Z,12
2018-09-16T04:40:08.199Z,10.89
2018-09-16T04:46:03.186Z,10.22
2018-09-16T04:51:58.201Z,11.2
2018-09-16T04:57:53.179Z,11.84
2018-09-16T05:03:48.191Z,11.37
2018-09-16T05:09:43.227Z,10.35
2018-09-16T05:15:38.225Z,11.09
2018-09-16T05:21:33.233Z,9.37
2018-09-16T05:27:28.235Z,9.22
2018-09-16T05:33:23.299Z,9.64
2018-09-16T05:39:18.274Z,9.5
2018-09-16T05:45:13.234Z,9.03
2018-09-16T05:51:08.233Z,8.98
2018-09-16T05:57:03.234Z,8.88
2018-09-16T06:02:58.292Z,10.91
2018-09-16T06:08:53.327Z,10.14
2018-09-16T06:14:48.258Z,10.77
2018-09-16T06:20:43.249Z,10.63
2018-09-16T06:26:38.246Z,13.24
2018-09-16T06:32:33.264Z,14.58
2018-09-16T06:38:28.275Z,16.17
2018-09-16T06:44:23.344Z,17.56
2018-09-16T06:50:18.276Z,16.59
2018-09-16T06:56:13.265Z,17.84
2018-09-16T07:02:08.363Z,16.1
2018-09-16T07:08:03.276Z,13.55
2018-09-16T07:13:58.288Z,10.65
2018-09-16T07:19:53.284Z,10.62
2018-09-16T07:25:48.280Z,10.68
2018-09-16T07:31:43.294Z,10.34
2018-09-16T07:37:38.335Z,11.1
2018-09-16T07:43:33.307Z,11.19
2018-09-16T07:49:28.352Z,10.75
2018-09-16T07:55:23.310Z,10.79
2018-09-16T08:01:18.328Z,11.18
2018-09-16T08:07:13.332Z,11.72
2018-09-16T08:13:08.337Z,13.2
2018-09-16T08:19:03.309Z,11.97
2018-09-16T08:24:58.313Z,11.38
2018-09-16T08:30:53.333Z,11.73
2018-09-16T08:36:48.436Z,11.77
2018-09-16T08:42:43.343Z,11.53
2018-09-16T08:48:38.399Z,11.14
2018-09-16T08:54:33.353Z,11.31
2018-09-16T09:00:28.341Z,10.13
2018-09-16T09:06:23.365Z,11.07
2018-09-16T09:12:18.351Z,8.13
2018-09-16T09:18:13.340Z,8.25
2018-09-16T09:24:08.364Z,12.9
2018-09-16T09:30:03.543Z,8.11
2018-09-16T09:35:58.381Z,7.87
2018-09-16T09:41:53.372Z,7.22
2018-09-16T09:47:48.386Z,6.74
2018-09-16T09:53:43.393Z,6.16
2018-09-16T09:59:38.392Z,7.03
2018-09-16T10:05:33.395Z,7.47
2018-09-16T10:11:28.405Z,6.79
2018-09-16T10:17:23.391Z,6.15
2018-09-16T10:23:18.413Z,8.52
2018-09-16T10:29:13.397Z,5.97
2018-09-16T10:35:08.404Z,5.28
2018-09-16T10:41:03.418Z,5.51
2018-09-16T10:46:58.439Z,6.68
2018-09-16T10:52:53.413Z,6.33
2018-09-16T10:58:48.428Z,4.58
2018-09-16T11:04:43.443Z,4.63
2018-09-16T11:10:38.397Z,3.98
2018-09-16T11:16:33.420Z,4.43
2018-09-16T11:22:28.416Z,4.77
2018-09-16T11:28:23.464Z,4.18
2018-09-16T11:34:18.459Z,4.17
2018-09-16T11:40:13.456Z,4.05
2018-09-16T11:46:08.457Z,3.51
2018-09-16T11:52:03.464Z,3.73
2018-09-16T11:57:58.448Z,3.67
2018-09-16T12:03:53.466Z,3.69
2018-09-16T12:09:48.450Z,3.58
2018-09-16T12:15:43.488Z,3.25
2018-09-16T12:21:38.470Z,3.55
2018-09-16T12:27:33.475Z,3.96
2018-09-16T12:33:28.521Z,3.58
2018-09-16T12:39:23.481Z,4.21
2018-09-16T12:45:18.578Z,4.26
2018-09-16T12:51:13.519Z,3.87
2018-09-16T12:57:08.646Z,3.87
2018-09-16T13:03:03.503Z,14.13
2018-09-16T13:08:58.507Z,3.6
2018-09-16T13:14:53.504Z,4.42
2018-09-16T13:20:48.507Z,3.26
2018-09-16T13:26:43.529Z,3.51
2018-09-16T13:32:38.529Z,3.32
2018-09-16T13:38:33.528Z,3.55
2018-09-16T13:44:28.517Z,4.48
2018-09-16T13:50:23.584Z,4.83
2018-09-16T13:56:18.508Z,4.56
2018-09-16T14:02:13.601Z,3.86
2018-09-16T14:08:08.526Z,3.83
2018-09-16T14:14:03.537Z,3.62
2018-09-16T14:19:58.545Z,3.85
2018-09-16T14:25:53.558Z,3.76
2018-09-16T14:31:48.583Z,3.89
2018-09-16T14:37:43.579Z,3.83
2018-09-16T14:43:38.597Z,3.63
2018-09-16T14:49:33.568Z,4.85
2018-09-16T14:55:28.579Z,3.35
2018-09-16T15:01:23.585Z,3.19
2018-09-16T15:07:18.562Z,3.07
2018-09-16T15:13:13.637Z,3.01
2018-09-16T15:19:08.585Z,3.15
2018-09-16T15:25:03.589Z,3.25
2018-09-16T15:30:58.574Z,3.16
2018-09-16T15:36:53.615Z,3.13
2018-09-16T15:42:48.646Z,3.32
2018-09-16T15:48:43.604Z,3.23
2018-09-16T15:54:38.613Z,2.97
2018-09-16T16:00:33.617Z,2.86
2018-09-16T16:06:28.676Z,3.37
2018-09-16T16:12:23.626Z,3.39
2018-09-16T16:18:18.657Z,3.11
2018-09-16T16:24:13.622Z,3.07
2018-09-16T16:30:08.656Z,3.28
2018-09-16T16:36:03.657Z,3.42
2018-09-16T16:41:58.639Z,3.28
2018-09-16T16:47:53.654Z,2.76
2018-09-16T16:53:48.696Z,3.01
2018-09-16T16:59:43.664Z,3.53
2018-09-16T17:05:38.649Z,3.09
2018-09-16T17:11:33.680Z,3.21
2018-09-16T17:17:28.659Z,3.34
2018-09-16T17:23:23.720Z,3.16
2018-09-16T17:29:18.689Z,3.24
2018-09-16T17:35:13.683Z,3.32
2018-09-16T17:41:08.712Z,4.21
2018-09-16T17:47:03.670Z,4.92
2018-09-16T17:52:58.721Z,4.77
2018-09-16T17:58:53.682Z,5.12
2018-09-16T18:04:48.697Z,4.88
2018-09-16T18:10:43.686Z,5.32
2018-09-16T18:16:38.834Z,6.63
2018-09-16T18:22:33.724Z,6.67
2018-09-16T18:28:28.690Z,6.64
2018-09-16T18:34:23.700Z,6.2
2018-09-16T18:40:18.738Z,6.67
2018-09-16T18:46:13.731Z,5.8
2018-09-16T18:52:08.728Z,5.95
2018-09-16T18:58:03.721Z,6.15
2018-09-16T19:03:58.790Z,6.07
2018-09-16T19:09:53.729Z,6.23
2018-09-16T19:15:48.732Z,6.57
2018-09-16T19:21:43.779Z,7.23
2018-09-16T19:27:38.783Z,7.6
2018-09-16T19:33:33.734Z,7.6
2018-09-16T19:39:28.744Z,7.69
2018-09-16T19:45:23.748Z,8.25
2018-09-16T19:51:18.771Z,8.73
2018-09-16T19:57:13.781Z,8.93
2018-09-16T20:03:08.786Z,9.04
2018-09-16T20:09:03.768Z,11.27
2018-09-16T20:14:58.792Z,10.25
2018-09-16T20:20:53.778Z,10.29
2018-09-16T20:26:48.803Z,12.34
2018-09-16T20:32:43.807Z,11.6
2018-09-16T20:38:38.791Z,11.22
2018-09-16T20:44:33.842Z,10.88
2018-09-16T20:50:28.833Z,10.93
2018-09-16T20:56:23.873Z,10.23
2018-09-16T21:02:18.818Z,9.93
2018-09-16T21:08:13.810Z,10.43
2018-09-16T21:14:08.818Z,10.23
2018-09-16T21:20:03.803Z,10.2
2018-09-16T21:25:58.864Z,10.24
2018-09-16T21:31:53.830Z,9.85
2018-09-16T21:37:48.857Z,10.61
2018-09-16T21:43:43.827Z,9.05
2018-09-16T21:49:38.882Z,10.1
2018-09-16T21:55:33.847Z,9.72
2018-09-16T22:01:28.847Z,9.76
2018-09-16T22:07:23.854Z,9.4
2018-09-16T22:13:18.935Z,9.8
2018-09-16T22:19:13.858Z,10.24
2018-09-16T22:25:08.840Z,9.26
2018-09-16T22:31:03.861Z,9.99
2018-09-16T22:36:58.914Z,9.64
2018-09-16T22:42:53.884Z,9.98
2018-09-16T22:48:48.930Z,10.82
2018-09-16T22:54:43.896Z,10.44
2018-09-16T23:00:38.895Z,13.23
2018-09-16T23:06:33.911Z,11.67
2018-09-16T23:12:28.923Z,10.43
2018-09-16T23:18:23.931Z,10.41
2018-09-16T23:24:18.900Z,10.6
2018-09-16T23:30:13.932Z,10.27
2018-09-16T23:36:08.912Z,9.7
2018-09-16T23:42:03.903Z,10.1
2018-09-16T23:47:58.929Z,8.41
2018-09-16T23:53:53.900Z,10.24
2018-09-16T23:59:48.955Z,9.77
